Airfield :
LOGIN :

Register | Disclaimer

   EN    FR    IT 

 










Legend :    VFR   Marginal VFR   IFR   Intensive IFR   Very Intensive IFR
Visi :
Ceiling :
>= 8 km
>= 3000ft
5 to 8 km
1000 to 3000 ft
1500m to 5 km
500 to 1000 ft
800 to 1500m
200 to 500 ft
< 800m
< 200 ft
Symbols :   Thunderstorms  Fog  Heavy snow  Heavy precipitations  Wind > 20 kt
SIGMETs :     Misc.  Thunderstorms  Icing  Turbulence  Mountain Waves  Volcanic Ashes






- Airport Elevation : 74 ft
- IATA code : MRS


LFML - Marseille / Marignane

CURRENT METAR :
  • 141430Z AUTO 28005KT CAVOK 26/08 Q1022 NOSIG

EXPIRED METARs :
  • 141400Z AUTO 20007KT CAVOK 25/07 Q1022 NOSIG
  • 141330Z AUTO 19010KT CAVOK 25/10 Q1023 NOSIG
  • 141300Z AUTO 26007KT CAVOK 25/13 Q1023 NOSIG
  • 141230Z AUTO 27006KT CAVOK 24/15 Q1023 NOSIG
  • 141200Z AUTO 29005KT CAVOK 24/14 Q1023 NOSIG
  • 141130Z AUTO 26003KT CAVOK 25/14 Q1024 NOSIG
  • 141100Z AUTO 27003KT 9999 FEW032 24/12 Q1024 NOSIG
  • 141030Z AUTO 28004KT CAVOK 23/12 Q1024 NOSIG
  • 141000Z AUTO VRB03KT CAVOK 22/13 Q1024 NOSIG

TAF TAF LFML
Valid from the 14 at 09:00 until the 15 at 15:00 UTC


140800Z 1409/1515 VRB02KT CAVOK TX27/1415Z TN14/1504Z
PROB40
TEMPO 1422/1509 2000 BR OVC003
ATIS : +33 4 42 31 15 15



MET'MAP, your aeronautical weather chart ! - Copyright ORBIFLY December 2007 - Disclaimer

ORBIFLY MET'MAP TEAM :

Programming & Development : Alexandra Zaïnal
Original concept : Baudouin d'Aumeries
Technical & hardware support : Manuel Goepfert
Assistance : Marc-Olivier Méhu




SOURCES & CREDITS :

   NOAA